Historyczne dane pomiarowe

Dodano dane terminowe – wersja testowa.

Dane z okresu 1951-2019

Wersja bazy: 1.34 [2019-03-16, lista zmian], aktualizacja planowana na 2019-04-15

Dane meteo z obszaru Polski uzyskane na podstawie danych udostępnionych przez Instytut Meteorologii i Gospodarki Wodnej – Państwowy Instytut Badawczy.

 

Wybierz Datę:    

       

TemperaturaWilgotnośćWiatrCiśnienieOpadyŚniegCzas trwania zjawisk
 Stacja t tx tn tng RH VA  wxwx mslp ppp RRR   cm mm wxwxwxwxwxwxwx
1961-08-14 14.3 18.4 7.0 3.3 76.3- 7.3 3.3---- 0.1------------
1961-08-13 11.9 17.8 9.0 5.2 84.3- 3.3 4.0---- 0.0------------
1961-08-12 15.8 21.3 13.5 9.3 85.3- 7.3 2.7---- 0.0------------
1961-08-11 15.7 17.4 14.4 13.8 95.5- 7.7 1.0---- 1.3------------
1961-08-10 16.2 19.8 13.4 10.3 89.8- 7.0 1.7---- 11.9------------
1961-08-09 18.0 22.6 12.6 8.7 75.3- 6.0 3.0---- 0.0------------
1961-08-08 15.9 21.1 10.1 6.7 75.5- 6.0 2.3---- 0.1------------
1961-08-07 14.1 18.5 11.9 11.1 93.0- 5.3 1.3---- 1.9------------
1961-08-06 19.8 26.4 15.9 11.5 77.3- 4.0 3.7---- 19.7------------
1961-08-05 17.6 21.6 13.0 10.1 82.0- 7.3 3.3---- 3.2------------
1961-08-04 12.9 15.3 7.3 3.1 95.3- 8.0 4.7---- 3.5------------
1961-08-03 12.9 17.9 10.6 9.6 93.3- 5.3 3.0---- 0.6------------
1961-08-02 15.6 20.6 9.2 7.2 88.3- 7.7 1.3---- 0.2------------
1961-08-01 14.0 17.4 12.4 12.4 92.3- 6.3 6.3---- 2.7------------
1961-07-31 13.3 14.6 12.6 11.8 96.8- 8.0 5.0---- 24.8------------
1961-07-30 14.9 17.9 10.3 8.9 88.5- 7.0 2.0---- 4.7------------
1961-07-29 12.9 17.1 10.1 8.7 85.5- 7.3 3.0---- 0.0------------
1961-07-28 12.3 15.1 11.5 9.8 96.3- 7.7 1.0---- 6.3------------
1961-07-27 15.1 20.1 12.8 12.4 88.8- 6.3 5.3---- 0.9------------
1961-07-26 16.8 21.0 12.1 10.2 79.5- 8.0 4.0---- 1.3------------
1961-07-25 14.0 16.2 9.9 8.3 83.8- 7.7 5.3---- 1.0------------
1961-07-24 13.3 16.4 11.7 10.8 82.8- 7.3 4.3---- 0.0------------
1961-07-23 13.8 16.4 12.3 11.7 89.5- 7.0 3.7---- 0.3------------
1961-07-22 14.9 18.1 11.8 9.8 91.8- 7.0 5.0---- 1.4------------
1961-07-21 14.6 18.3 12.8 11.5 95.8- 8.0 5.7---- 20.2------------
1961-07-20 13.8 19.6 11.3 7.9 91.8- 7.0 2.7---- 4.8------------
1961-07-19 14.9 20.1 10.9 8.7 89.0- 5.3 2.7---- 4.1------------
1961-07-18 14.1 17.3 11.7 11.4 93.8- 7.0 2.0---- 1.6------------
1961-07-17 14.3 19.1 10.9 8.9 90.5- 7.0 1.7---- 12.3------------
1961-07-16 13.6 16.9 12.9 8.5 94.3- 7.3 1.7---- 6.4------------
1961-07-15 16.5 21.4 10.9 7.3 79.5- 5.0 2.0---- 1.4------------
1961-07-14 12.0 18.1 11.4 13.5 94.0- 6.0 6.3---- 0.4------------
1961-07-13 20.0 27.5 13.3 11.7 88.5- 6.0 4.0---- 27.1------------
1961-07-12 18.2 23.5 14.0 12.3 85.0- 5.3 1.3---- 0.0------------
1961-07-11 14.9 19.5 8.8 5.7 80.8- 6.3 4.0---- 6.3------------
1961-07-10 12.6 16.5 9.6 8.8 83.0- 6.3 4.3---- 0.1------------
1961-07-09 13.0 15.4 10.7 9.5 93.8- 7.7 2.7---- 10.7------------
1961-07-08 14.4 19.5 7.6 4.8 84.0- 7.3 4.0---- 7.0------------
1961-07-07 11.5 16.5 6.5 5.2 87.8- 6.7 3.3---- 0.2------------
1961-07-06 10.4 13.9 5.3 5.5 87.0- 5.3 3.3---- 1.8------------
1961-07-05 11.2 15.5 7.7 10.2 77.5- 5.3 10.3---- 0.3------------
1961-07-04 14.8 18.2 8.8 7.3 87.8- 5.7 4.3---- 0.5------------
1961-07-03 22.0 31.6 13.9 8.4 66.5- 4.3 3.7---- 0.0------------
1961-07-02 22.6 28.9 6.4 4.4 54.5- 0.0 1.7---- 0.0------------
1961-07-01 20.0 26.7 6.3 1.1 64.8- 1.0 2.0---- 0.0------------
1961-06-30 17.9 24.4 10.0 5.4 56.8- 0.0 3.3---- 0.0------------
1961-06-29 14.7 20.0 11.7 7.9 77.3- 5.0 4.7---- 0.0------------
1961-06-28 14.1 20.7 12.1 11.3 72.3- 4.7 7.7---- 0.0------------
1961-06-27 21.9 26.8 16.6 11.8 74.5- 6.7 4.0---- 0.0------------
1961-06-26 21.7 27.1 12.5 7.3 55.3- 1.0 3.3---- 0.0------------
1961-06-25 20.3 26.5 12.5 9.7 63.3- 3.7 6.0---- 0.0------------
1961-06-24 16.5 22.1 12.0 9.1 66.5- 5.3 6.0---- 0.0------------
1961-06-23 17.0 20.4 12.1 7.3 65.8- 6.3 5.7---- 0.0------------
1961-06-22 15.9 20.7 6.2 2.5 66.0- 1.3 2.0---- 0.0------------
1961-06-21 13.0 19.9 7.7 6.6 71.5- 4.0 3.0---- 3.0------------
1961-06-20 13.9 18.7 7.7 5.7 61.8- 3.3 5.0---- 0.0------------
1961-06-19 13.6 18.7 11.4 9.0 72.3- 2.3 6.0---- 0.5------------
1961-06-18 20.0 26.1 15.0 13.2 73.5- 5.7 5.3---- 0.7------------
1961-06-17 17.3 21.8 9.1 6.8 75.5- 4.3 4.3---- 0.0------------
1961-06-16 11.5 16.2 10.3 11.0 88.8- 5.7 5.7---- 1.6------------
240.3 ms

 

Źródłem pochodzenia danych jest Instytut Meteorologii i Gospodarki Wodnej – Państwowy Instytut Badawczy. Dane Instytutu Meteorologii i Gospodarki Wodnej – Państwowego Instytutu Badawczego zostały przetworzone.

Dane źródłowe można odnaleźć na stronie https://dane.imgw.pl